createdAt,value
2019-04-11T08:24:56.500Z,11.10
2019-04-11T08:33:14.729Z,4.30
2019-04-11T08:41:49.643Z,8.90
2019-04-11T08:50:07.274Z,5.35
2019-04-11T08:58:30.853Z,4.10
2019-04-11T09:06:49.217Z,5.07
2019-04-11T09:24:10.296Z,4.53
2019-04-11T09:32:58.451Z,2.60
2019-04-11T09:41:35.178Z,3.57
2019-04-11T09:49:55.936Z,2.03
2019-04-11T09:58:23.527Z,3.07
2019-04-11T10:07:19.625Z,2.90
2019-04-11T10:15:55.708Z,3.17
2019-04-11T10:24:26.722Z,3.87
2019-04-11T10:32:48.074Z,4.40
2019-04-11T10:41:25.120Z,6.10
2019-04-11T10:50:07.656Z,6.40
2019-04-11T10:58:33.018Z,3.63
2019-04-11T11:06:53.902Z,3.77
2019-04-11T11:15:17.750Z,3.90
2019-04-11T11:23:54.406Z,4.33
2019-04-11T11:32:25.314Z,1.90
2019-04-11T11:41:01.168Z,2.93
2019-04-11T11:49:37.562Z,4.40
2019-04-11T11:57:48.960Z,4.20
2019-04-11T12:06:07.308Z,5.20
2019-04-11T12:14:44.964Z,4.77
2019-04-11T12:23:06.656Z,6.93
2019-04-11T12:31:24.552Z,4.63
2019-04-11T12:40:00.373Z,7.07
2019-04-11T12:48:18.284Z,5.70
2019-04-11T12:56:44.202Z,5.10
2019-04-11T13:05:02.371Z,3.63
2019-04-11T13:13:37.119Z,2.57
2019-04-11T13:22:00.657Z,6.50
2019-04-11T13:30:32.030Z,5.50
2019-04-11T13:38:52.122Z,2.50
2019-04-11T13:47:44.473Z,4.03
2019-04-11T13:56:02.287Z,2.37
2019-04-11T14:04:23.822Z,4.53
2019-04-11T14:12:41.853Z,2.90
2019-04-11T14:21:06.029Z,5.47
2019-04-11T14:29:32.763Z,3.50
2019-04-11T14:38:14.876Z,5.07
2019-04-11T14:46:50.639Z,5.97
2019-04-11T14:55:08.944Z,5.00
2019-04-11T15:03:43.754Z,5.77
2019-04-11T15:12:30.344Z,4.33
2019-04-11T15:20:55.985Z,5.37
2019-04-11T15:29:34.512Z,7.93
2019-04-11T15:38:11.177Z,3.50
2019-04-11T15:46:30.352Z,8.33
2019-04-11T15:55:02.129Z,3.47
2019-04-11T16:03:20.919Z,3.00
2019-04-11T16:11:57.650Z,4.50
2019-04-11T16:20:21.092Z,3.57
2019-04-11T16:28:59.868Z,6.03
2019-04-11T16:37:18.446Z,4.10
2019-04-11T16:45:54.805Z,8.37
2019-04-11T16:54:15.846Z,2.10
2019-04-11T17:02:33.797Z,3.10
2019-04-11T17:10:59.023Z,2.90
2019-04-11T17:19:16.618Z,3.30
2019-04-11T17:27:35.029Z,4.90
2019-04-11T17:35:53.251Z,4.80
2019-04-11T17:44:11.010Z,5.67
2019-04-11T17:52:28.509Z,9.03
2019-04-11T18:00:51.608Z,9.20
2019-04-11T18:09:11.882Z,11.57
2019-04-11T18:17:29.600Z,12.37
2019-04-11T18:25:48.898Z,10.10
2019-04-11T18:34:08.695Z,15.27
2019-04-11T18:42:26.875Z,11.33
2019-04-11T18:50:44.860Z,7.67
2019-04-11T18:59:03.802Z,10.15
2019-04-11T19:07:27.630Z,9.80
2019-04-11T19:15:45.472Z,8.30
2019-04-11T19:24:02.175Z,8.95
2019-04-11T19:32:19.653Z,12.07
2019-04-11T19:40:37.114Z,9.50
2019-04-11T19:48:59.065Z,6.70
2019-04-11T19:57:14.945Z,10.30
2019-04-11T20:05:32.405Z,8.68
2019-04-11T20:13:49.822Z,10.87
2019-04-11T20:22:08.645Z,8.43
2019-04-11T20:30:26.438Z,10.30
2019-04-11T20:38:44.745Z,8.63
2019-04-11T20:47:03.188Z,14.17
2019-04-11T20:55:20.721Z,9.97
2019-04-11T21:03:38.224Z,9.10
2019-04-11T21:11:55.708Z,11.07
2019-04-11T21:20:13.317Z,11.73
2019-04-11T21:28:30.977Z,11.17
2019-04-11T21:36:48.512Z,9.30
2019-04-11T21:45:06.888Z,11.70
2019-04-11T21:53:35.807Z,12.00
2019-04-11T22:01:44.384Z,9.63
2019-04-11T22:10:01.872Z,11.00
2019-04-11T22:18:19.374Z,9.47
2019-04-11T22:26:36.807Z,11.00
2019-04-11T22:34:54.212Z,9.10
2019-04-11T22:43:22.738Z,10.10
2019-04-11T22:51:30.898Z,8.63
2019-04-11T22:59:48.347Z,11.33
2019-04-11T23:08:05.772Z,10.47
2019-04-11T23:16:23.289Z,15.70
2019-04-11T23:24:40.738Z,6.43
2019-04-11T23:32:58.249Z,9.55
2019-04-11T23:41:19.690Z,8.87
2019-04-11T23:49:34.810Z,8.30
2019-04-11T23:57:52.246Z,10.45
